Home   Weather   Norfolk Island   Kingston   Past weeks
Flag for Norfolk Island

Past Weather in Kingston, Norfolk Island — Yesterday and Last 2 Weeks

Currently: 61 °F. Passing clouds. (Weather station: Norfolk Island Airport, Norfolk Island). See more current weather

Past Weather in Kingston — Graph

°F

Kingston Temperature Yesterday

Maximum temperature yesterday: 66 °F (at 11:00 am)
Minimum temperature yesterday: 61 °F (at 6:36 am)
Average temperature yesterday: 63 °F

High & Low Weather Summary for the Past Weeks

 TemperatureHumidityPressure
High68 °F (Jul 16, 10:30 am)100% (Jul 16, 10:34 pm)30.24 "Hg (Jul 16, 10:34 pm)
Low52 °F (Jul 15, 12:00 am)52% (Jul 14, 2:00 pm)29.68 "Hg (Jul 11, 11:10 pm)
Average62 °F77%29.94 "Hg
* Reported Jul 11 11:10 pm — Jul 26 11:30 pm, Kingston. Weather by CustomWeather, © 2021

Note: Actual official high and low records may vary slightly from our data, if they occured in-between our weather recording intervals... More about our weather records

Kingston Weather History for the Previous 24 Hours

Scroll right to see more
 ConditionsComfort  
Time TempWeatherWind HumidityBarometerVisibility
11:30 pm
Mon, Jul 26
61 °FPartly cloudy.14 mph63%30.09 "HgN/A
11:00 pm61 °FPassing clouds.15 mph63%30.09 "HgN/A
10:30 pm61 °FPassing clouds.14 mph63%30.07 "HgN/A
10:00 pm61 °FPassing clouds.15 mph68%30.07 "HgN/A
9:30 pm61 °FClear.15 mph63%30.04 "HgN/A
9:00 pm61 °FPassing clouds.16 mph68%30.04 "HgN/A
8:30 pm61 °FPassing clouds.14 mph68%30.04 "HgN/A
8:00 pm61 °FPassing clouds.15 mph68%30.04 "HgN/A
7:30 pm61 °FPartly cloudy.17 mph72%30.04 "HgN/A
7:00 pm61 °FMostly cloudy.16 mph72%30.01 "HgN/A
6:30 pm61 °FMostly cloudy.17 mph77%30.01 "HgN/A
5:30 pm61 °FPassing clouds.20 mph72%29.98 "HgN/A
5:10 pm61 °FScattered clouds.21 mph68%29.98 "HgN/A
4:36 pm63 °FScattered clouds.22 mph68%29.95 "HgN/A
4:06 pm63 °FScattered clouds.21 mph64%29.95 "HgN/A
3:33 pm64 °FScattered clouds.22 mph64%29.95 "HgN/A
3:00 pm64 °FScattered clouds.23 mph68%29.92 "HgN/A
2:36 pm64 °FPartly sunny.22 mph64%29.92 "HgN/A
2:00 pm64 °FPartly sunny.22 mph68%29.92 "HgN/A
1:30 pm64 °FScattered clouds.24 mph64%29.92 "HgN/A
1:00 pm64 °FBroken clouds.22 mph64%29.92 "HgN/A
12:44 pm66 °FScattered clouds.22 mph64%29.92 "HgN/A
12:00 pm66 °FBroken clouds.22 mph64%29.92 "HgN/A
11:30 am64 °FScattered clouds.18 mph68%29.95 "HgN/A
11:00 am66 °FScattered clouds.20 mph60%29.95 "HgN/A
10:12 am63 °FScattered showers. Scattered clouds.18 mph77%29.95 "HgN/A
9:30 am63 °FScattered clouds.18 mph77%29.95 "HgN/A
9:08 am64 °FScattered clouds.21 mph73%29.92 "HgN/A
8:30 am63 °FBroken clouds.20 mph77%29.92 "HgN/A
8:08 am63 °FBroken clouds.20 mph77%29.92 "HgN/A
7:30 am63 °FBroken clouds.17 mph83%29.89 "HgN/A
7:04 am61 °FSprinkles. Broken clouds.18 mph88%29.89 "Hg5 mi
6:36 am61 °FSprinkles. Broken clouds.26 mph88%29.89 "Hg4 mi
6:04 am64 °FOvercast.20 mph68%29.86 "HgN/A
5:38 am64 °FMostly cloudy.22 mph78%29.86 "HgN/A
5:00 am64 °FClear.21 mph64%29.83 "HgN/A
4:30 am64 °FPassing clouds.21 mph68%29.83 "HgN/A
4:00 am64 °FClear.22 mph68%29.83 "HgN/A
3:30 am63 °FPartly cloudy.18 mph73%29.83 "HgN/A
3:00 am64 °FPartly cloudy.21 mph68%29.83 "HgN/A
2:30 am64 °FPassing clouds.21 mph73%29.83 "HgN/A
2:00 am63 °FPartly cloudy.21 mph77%29.83 "HgN/A
1:30 am64 °FPassing clouds.23 mph78%29.83 "HgN/A
1:00 am64 °FPassing clouds.18 mph78%29.86 "HgN/A
Weather by CustomWeather, © 2021

See weather overview